Main page
METAR-TAF:

METAR-TAF

Airports :

Aurillac – Tronquières Airport

Aurillac, France

latitude: 44-53N, longitude: 002-25E, elevation: 639 m

Current weather observation

The report was made 19 minutes ago, at 06:30 UTC
Wind 7 kt from the East
Temperature -2°C
Humidity 80%
Pressure 1008 hPa
Visibility 10 km or more
no clouds below 1500 m and no cumulonimbus

METAR: LFLW 080630Z AUTO 09007KT CAVOK M02/M05 Q1008 TEMPO 4000 BR

Time: 07:49 (06:49 UTC)

Forecast

The report was made 1 hour and 49 minutes ago, at 05:00 UTC
Forecast valid from 08 at 06 UTC to 08 at 15 UTC
Wind 7 kt from the East
Visibility 10 km or more
no clouds below 1500 m and no cumulonimbus
Probability 30% :
Temporary
from 08 at 06 UTC to 08 at 08 UTC
Visibility: 4000 m
mist

TAF: LFLW 080500Z 0806/0815 10007KT CAVOK PROB30 TEMPO 0806/0808 4000 BR

Weather observations and forecasts of more than 4000 airports (METAR and TAF reports).

The available stations are represented by yellow and red dots on the map.

Hover mouse over dot to see the name of the station.

Then click to see weather observations and forecasts.

To change the map : click on the green buttons with a black cross to zoom in, on the green button with a dash to zoom out, or on the green arrows for adjacent maps.


METAR-TAF: